Terminal Aerodrome Forecast
Issued by NWS Mt. Holly, NJ

Home | Current Version | Previous Version | Text Only | Print | Product List | Glossary On
Versions: 1 2 3 4 5 6 7 8 9 10 11 12 13 14 15 16 17 18 19 20 21 22 23 24 25 26 27 28 29 30
000
FTUS41 KPHI 250400 AAC
TAFABE
TAF AMD
KABE 250400Z 2504/2524 04005KT P6SM VCSH SCT006 BKN020
      TEMPO 2504/2506 4SM -RA BR BKN006
     FM250600 08005KT 5SM BR OVC008
     FM250700 09006KT 2SM -RA BR OVC008
     FM251000 09006KT 2SM -RA BR OVC005
     FM251900 VRB03KT P6SM OVC010
     FM252100 VRB03KT P6SM SCT050=

USA.gov is the U.S. government's official web portal to all federal, state and local government web resources and services.